Time;durP1;ratioP1;P1;durP2;ratioP2;P2;SDS_P1;SDS_P2;PMS_P1;PMS_P2;Temp;Humidity;BMP_temperature;BMP_pressure;BME280_temperature;BME280_humidity;BME280_pressure;Samples;Min_cycle;Max_cycle;Signal;HPM_P1;HPM_P2
2022/03/02 00:01:55;;;;;;;0.80;0.80;;;-2.60;1.00;;;;;;5071632;28;20186;-74
2022/03/02 00:04:21;;;;;;;0.90;0.90;;;-2.60;1.00;;;;;;5072808;28;20170;-73
2022/03/02 00:06:47;;;;;;;0.90;0.90;;;-2.60;1.00;;;;;;5075171;28;20214;-73
2022/03/02 00:09:13;;;;;;;0.90;0.90;;;-2.80;99.90;;;;;;5074556;28;20192;-73
2022/03/02 00:11:39;;;;;;;0.80;0.80;;;-2.80;1.00;;;;;;5074742;28;20186;-73
2022/03/02 00:14:05;;;;;;;0.80;0.80;;;-2.80;70.50;;;;;;5075002;28;20189;-73
2022/03/02 00:16:32;;;;;;;0.80;0.80;;;-2.70;1.00;;;;;;5074113;28;20185;-74
2022/03/02 00:18:59;;;;;;;1.00;1.00;;;-2.70;3.80;;;;;;5073487;28;20174;-74
2022/03/02 00:21:25;;;;;;;0.80;0.80;;;-2.80;1.00;;;;;;5073952;28;20651;-74
2022/03/02 00:23:51;;;;;;;0.90;0.90;;;-2.80;1.00;;;;;;5073972;28;20664;-74
2022/03/02 00:26:17;;;;;;;0.87;0.87;;;-2.80;1.00;;;;;;5073913;28;20210;-74
2022/03/02 00:28:43;;;;;;;1.00;1.00;;;-2.80;1.00;;;;;;5073812;28;20412;-74
2022/03/02 00:31:09;;;;;;;0.90;0.90;;;-2.80;1.00;;;;;;5073233;28;20251;-74
2022/03/02 00:33:35;;;;;;;0.87;0.87;;;-2.60;1.00;;;;;;5073922;28;20190;-75
2022/03/02 00:36:01;;;;;;;0.87;0.87;;;-2.70;1.00;;;;;;5073713;28;20190;-74
2022/03/02 00:38:26;;;;;;;0.80;0.80;;;-2.60;1.00;;;;;;5073708;28;20539;-74
2022/03/02 00:40:52;;;;;;;0.80;0.80;;;-2.50;1.00;;;;;;5073211;28;20208;-74
2022/03/02 00:43:18;;;;;;;0.87;0.87;;;-2.50;1.00;;;;;;5073898;28;20174;-73
2022/03/02 00:45:43;;;;;;;1.00;1.00;;;-2.40;1.00;;;;;;5073535;28;20718;-73
2022/03/02 00:48:09;;;;;;;0.90;0.90;;;-2.40;1.00;;;;;;5073841;28;20314;-75
2022/03/02 00:50:35;;;;;;;0.90;0.90;;;-2.30;1.00;;;;;;5072975;28;20277;-75
2022/03/02 00:53:05;;;;;;;0.80;0.80;;;-2.30;1.00;;;;;;5073424;28;20171;-75
2022/03/02 00:55:31;;;;;;;0.93;0.93;;;-2.30;1.00;;;;;;5073520;28;20177;-75
2022/03/02 00:57:57;;;;;;;0.97;0.97;;;-2.20;11.00;;;;;;5073296;28;20171;-74
2022/03/02 01:00:22;;;;;;;0.90;0.90;;;-2.40;99.90;;;;;;5072641;28;20741;-75
2022/03/02 01:02:48;;;;;;;0.90;0.90;;;-2.30;99.90;;;;;;5073156;28;20228;-75
2022/03/02 01:05:14;;;;;;;0.90;0.90;;;-2.20;94.00;;;;;;5073222;28;20186;-74
2022/03/02 01:07:39;;;;;;;0.90;0.90;;;-2.20;1.00;;;;;;5073222;28;20190;-74
2022/03/02 01:10:06;;;;;;;0.90;0.90;;;-2.10;1.00;;;;;;5072738;28;20567;-74
2022/03/02 01:12:33;;;;;;;0.80;0.80;;;-2.20;1.00;;;;;;5073045;28;20663;-74
2022/03/02 01:14:59;;;;;;;0.80;0.80;;;-2.30;99.90;;;;;;5072534;28;20715;-74
2022/03/02 01:17:24;;;;;;;0.93;0.93;;;-2.30;99.90;;;;;;5073251;28;20269;-75
2022/03/02 01:19:50;;;;;;;0.90;0.90;;;-2.30;99.90;;;;;;5072609;28;20331;-75
2022/03/02 01:22:17;;;;;;;0.90;0.90;;;-2.20;1.00;;;;;;5072960;28;20235;-74
2022/03/02 01:24:43;;;;;;;0.90;0.90;;;-2.20;1.00;;;;;;5073019;28;20721;-75
2022/03/02 01:27:08;;;;;;;0.77;0.77;;;-2.20;1.00;;;;;;5072968;28;20305;-75
2022/03/02 01:29:34;;;;;;;0.93;0.93;;;-2.20;1.00;;;;;;5072395;28;20213;-74
2022/03/02 01:32:01;;;;;;;0.87;0.87;;;-2.30;1.00;;;;;;5072978;28;20194;-74
2022/03/02 01:34:27;;;;;;;0.80;0.80;;;-2.30;1.00;;;;;;5073162;28;20175;-75
2022/03/02 01:36:53;;;;;;;0.80;0.80;;;-2.30;99.90;;;;;;5072867;28;20518;-76
2022/03/02 01:39:18;;;;;;;0.90;0.90;;;-2.40;91.70;;;;;;5072157;28;20733;-74
2022/03/02 01:41:44;;;;;;;0.83;0.83;;;-2.50;99.90;;;;;;5072747;28;20171;-75
2022/03/02 01:44:09;;;;;;;0.90;0.90;;;-2.50;99.90;;;;;;5072527;28;20175;-75
2022/03/02 01:46:35;;;;;;;0.80;0.80;;;-2.50;99.90;;;;;;5073009;28;20217;-75
2022/03/02 01:49:01;;;;;;;0.90;0.90;;;-2.50;99.90;;;;;;5072086;28;20171;-75
2022/03/02 01:51:27;;;;;;;0.80;0.80;;;-2.50;99.90;;;;;;5072638;28;20202;-74
2022/03/02 01:53:53;;;;;;;0.90;0.90;;;-2.60;99.90;;;;;;5073479;28;20177;-74
2022/03/02 01:56:18;;;;;;;0.90;0.90;;;-2.70;1.00;;;;;;5074071;28;20181;-74
2022/03/02 01:58:45;;;;;;;0.90;0.90;;;-2.60;99.90;;;;;;5073984;28;20166;-73
2022/03/02 02:01:11;;;;;;;0.90;0.90;;;-2.60;99.90;;;;;;5072775;28;20222;-73
2022/03/02 02:03:38;;;;;;;0.80;0.80;;;-2.50;99.90;;;;;;5072355;28;20258;-74
2022/03/02 02:06:04;;;;;;;0.90;0.90;;;-2.60;99.90;;;;;;5072258;28;20202;-74
2022/03/02 02:08:31;;;;;;;0.80;0.80;;;-2.60;99.90;;;;;;5073186;28;20201;-73
2022/03/02 02:10:59;;;;;;;0.80;0.80;;;-2.60;99.90;;;;;;5071908;28;20205;-73
2022/03/02 02:13:26;;;;;;;0.80;0.80;;;-2.60;99.90;;;;;;5072419;28;20253;-73
2022/03/02 02:15:53;;;;;;;0.90;0.90;;;-2.70;99.90;;;;;;5072215;28;20206;-73
2022/03/02 02:18:19;;;;;;;0.90;0.90;;;-2.70;99.90;;;;;;5072097;28;20324;-74
2022/03/02 02:20:45;;;;;;;0.90;0.90;;;-2.70;99.90;;;;;;5071433;28;20277;-73
2022/03/02 02:23:11;;;;;;;0.87;0.87;;;-2.70;99.90;;;;;;5071965;28;20181;-75
2022/03/02 02:25:37;;;;;;;0.90;0.90;;;-2.70;99.90;;;;;;5071872;28;20214;-74
2022/03/02 02:28:02;;;;;;;0.90;0.90;;;-2.80;99.90;;;;;;5071457;28;20762;-74
2022/03/02 02:30:29;;;;;;;0.90;0.90;;;-2.80;99.90;;;;;;5071435;28;20289;-74
2022/03/02 02:32:55;;;;;;;0.80;0.80;;;-2.80;99.90;;;;;;5071858;28;20182;-74
2022/03/02 02:35:21;;;;;;;0.80;0.80;;;-2.90;99.90;;;;;;5072094;28;20228;-74
2022/03/02 02:37:46;;;;;;;1.00;1.00;;;-2.90;78.60;;;;;;5071742;28;20204;-74
2022/03/02 02:40:15;;;;;;;0.90;0.90;;;-2.90;99.90;;;;;;5070831;28;20281;-73
2022/03/02 02:42:44;;;;;;;0.90;0.90;;;-3.00;99.90;;;;;;5071749;28;20175;-73
2022/03/02 02:45:15;;;;;;;1.00;1.00;;;-3.00;99.90;;;;;;5071515;28;20177;-73
2022/03/02 02:47:41;;;;;;;0.80;0.80;;;-3.00;1.00;;;;;;5071691;28;20171;-76
2022/03/02 02:50:18;;;;;;;0.80;0.80;;;-3.00;99.90;;;;;;5070874;28;20282;-76
2022/03/02 02:52:43;;;;;;;0.90;0.90;;;-3.10;99.90;;;;;;5071796;28;20209;-75
2022/03/02 02:55:11;;;;;;;0.90;0.90;;;-3.10;99.90;;;;;;5071651;28;20213;-74
2022/03/02 02:57:36;;;;;;;0.90;0.90;;;-3.10;99.90;;;;;;5072006;28;20175;-75
2022/03/02 03:00:05;;;;;;;1.00;1.00;;;-3.10;99.90;;;;;;5071272;28;20281;-74
2022/03/02 03:02:31;;;;;;;0.87;0.87;;;-3.30;99.90;;;;;;5071173;28;20186;-74
2022/03/02 03:04:56;;;;;;;0.90;0.90;;;-3.10;99.90;;;;;;5071075;28;20522;-75
2022/03/02 03:07:22;;;;;;;0.90;0.90;;;-3.10;99.90;;;;;;5071121;28;20248;-74
2022/03/02 03:09:47;;;;;;;0.80;0.80;;;-3.10;99.90;;;;;;5070505;28;20199;-74
2022/03/02 03:12:13;;;;;;;0.90;0.90;;;-3.10;1.00;;;;;;5071356;28;20182;-75
2022/03/02 03:14:39;;;;;;;0.90;0.90;;;-3.10;1.00;;;;;;5071387;28;20187;-74
2022/03/02 03:17:04;;;;;;;0.90;0.90;;;-3.00;1.00;;;;;;5071296;28;20609;-74
2022/03/02 03:19:30;;;;;;;0.80;0.80;;;-3.00;99.90;;;;;;5070430;28;20199;-74
2022/03/02 03:22:03;;;;;;;0.80;0.80;;;-3.10;99.90;;;;;;5071098;28;20185;-73
2022/03/02 03:24:28;;;;;;;0.80;0.80;;;-3.20;99.90;;;;;;5071325;28;20170;-74
2022/03/02 03:26:54;;;;;;;0.83;0.83;;;-3.30;99.90;;;;;;5070974;28;20550;-74
2022/03/02 03:29:19;;;;;;;0.90;0.90;;;-3.50;99.90;;;;;;5070488;28;20536;-74
2022/03/02 03:31:45;;;;;;;0.90;0.90;;;-3.50;99.90;;;;;;5070644;28;20236;-75
2022/03/02 03:34:10;;;;;;;0.87;0.87;;;-3.50;99.90;;;;;;5070836;28;20166;-75
2022/03/02 03:36:36;;;;;;;0.80;0.80;;;-3.50;99.90;;;;;;5070803;28;20228;-74
2022/03/02 03:39:02;;;;;;;0.97;0.97;;;-3.50;1.00;;;;;;5075508;28;20181;-75
2022/03/02 03:41:27;;;;;;;0.80;0.80;;;-3.50;99.90;;;;;;5077584;28;20636;-74
2022/03/02 03:43:53;;;;;;;0.90;0.90;;;-3.60;99.90;;;;;;5077642;28;20170;-75
2022/03/02 03:46:18;;;;;;;0.90;0.90;;;-3.70;1.00;;;;;;5077217;28;20659;-74
2022/03/02 03:48:44;;;;;;;0.90;0.90;;;-3.70;1.00;;;;;;5077454;28;20162;-74
2022/03/02 03:51:09;;;;;;;0.80;0.80;;;-3.70;99.90;;;;;;5076409;28;20194;-74
2022/03/02 03:53:35;;;;;;;0.90;0.90;;;-3.80;1.00;;;;;;5077591;28;20179;-74
2022/03/02 03:56:00;;;;;;;0.80;0.80;;;-3.70;1.00;;;;;;5077478;28;20174;-74
2022/03/02 03:58:26;;;;;;;0.80;0.80;;;-3.70;1.00;;;;;;5077314;28;20538;-74
2022/03/02 04:00:51;;;;;;;0.90;0.90;;;-3.80;1.00;;;;;;5076787;28;20197;-74
2022/03/02 04:03:17;;;;;;;0.90;0.90;;;-3.80;1.00;;;;;;5077491;28;20224;-75
2022/03/02 04:05:42;;;;;;;0.90;0.90;;;-3.80;99.90;;;;;;5077133;28;20202;-75
2022/03/02 04:08:08;;;;;;;0.80;0.80;;;-3.80;1.00;;;;;;5077510;28;20178;-75
2022/03/02 04:10:34;;;;;;;0.90;0.90;;;-3.80;1.00;;;;;;5076780;28;20206;-75
2022/03/02 04:13:00;;;;;;;0.93;0.93;;;-3.90;1.00;;;;;;5077300;28;20593;-74
2022/03/02 04:15:25;;;;;;;0.90;0.90;;;-3.90;99.90;;;;;;5077216;28;20184;-74
2022/03/02 04:17:51;;;;;;;1.00;1.00;;;-3.90;1.00;;;;;;5077221;28;20254;-74
2022/03/02 04:20:17;;;;;;;0.80;0.80;;;-4.00;1.00;;;;;;5076771;28;20628;-74
2022/03/02 04:22:42;;;;;;;0.90;0.90;;;-4.00;1.00;;;;;;5077538;28;20273;-76
2022/03/02 04:25:08;;;;;;;0.97;0.97;;;-3.90;1.00;;;;;;5077588;28;20224;-75
2022/03/02 04:27:34;;;;;;;0.90;0.90;;;-4.00;1.00;;;;;;5077230;28;20179;-74
2022/03/02 04:30:01;;;;;;;1.00;1.00;;;-4.00;1.00;;;;;;5058576;28;20202;-73
2022/03/02 04:32:27;;;;;;;0.90;0.90;;;-4.00;1.00;;;;;;5076667;28;20246;-72
2022/03/02 04:34:52;;;;;;;0.97;0.97;;;-3.90;1.00;;;;;;5077163;28;20261;-73
2022/03/02 04:37:18;;;;;;;0.90;0.90;;;-3.90;1.00;;;;;;5077416;28;20267;-74
2022/03/02 04:39:44;;;;;;;0.90;0.90;;;-4.00;1.00;;;;;;5076701;28;20195;-73
2022/03/02 04:42:09;;;;;;;0.90;0.90;;;-4.00;1.00;;;;;;5077039;28;20170;-74
2022/03/02 04:44:35;;;;;;;0.90;0.90;;;-4.10;1.00;;;;;;5077140;28;20186;-74
2022/03/02 04:47:00;;;;;;;0.90;0.90;;;-4.10;1.00;;;;;;5076941;28;20218;-73
2022/03/02 04:49:26;;;;;;;1.00;1.00;;;-4.10;1.00;;;;;;5074529;28;20190;-73
2022/03/02 04:51:51;;;;;;;0.90;0.90;;;-4.10;1.00;;;;;;5073881;28;20538;-74
2022/03/02 04:57:04;;;;;;;0.90;0.90;;;-4.10;1.00;;;;;;5073993;28;20231;-74
2022/03/02 04:59:29;;;;;;;0.80;0.80;;;-4.10;1.00;;;;;;5073071;28;20202;-75
2022/03/02 05:01:55;;;;;;;1.00;1.00;;;-4.00;1.00;;;;;;5073527;28;20183;-75
2022/03/02 05:04:20;;;;;;;0.73;0.73;;;-3.90;1.00;;;;;;5074275;28;20182;-75
2022/03/02 05:06:46;;;;;;;0.83;0.83;;;-3.90;1.00;;;;;;5073878;28;20558;-71
2022/03/02 05:09:11;;;;;;;0.90;0.90;;;-4.00;1.00;;;;;;5073253;28;20285;-73
2022/03/02 05:11:37;;;;;;;0.90;0.90;;;-4.20;1.00;;;;;;5073781;28;20186;-72
2022/03/02 05:14:02;;;;;;;0.90;0.90;;;-4.30;1.00;;;;;;5073720;28;20289;-72
2022/03/02 05:16:28;;;;;;;0.90;0.90;;;-4.40;1.00;;;;;;5073707;28;20179;-73
2022/03/02 05:18:53;;;;;;;0.87;0.87;;;-4.30;1.00;;;;;;5073348;28;20178;-73
2022/03/02 05:21:19;;;;;;;0.80;0.80;;;-4.20;1.00;;;;;;5074099;28;20177;-74
2022/03/02 05:23:45;;;;;;;0.80;0.80;;;-4.30;1.00;;;;;;5073461;28;20178;-73
2022/03/02 05:26:10;;;;;;;0.80;0.80;;;-4.30;1.00;;;;;;5073541;28;20248;-73
2022/03/02 05:28:36;;;;;;;0.80;0.80;;;-4.30;1.00;;;;;;5073460;28;20198;-72
2022/03/02 05:31:02;;;;;;;1.00;1.00;;;-4.30;1.00;;;;;;5072789;28;20204;-75
2022/03/02 05:33:28;;;;;;;1.00;1.00;;;-4.30;1.00;;;;;;5073271;28;20273;-75
2022/03/02 05:35:53;;;;;;;0.90;0.90;;;-4.30;1.00;;;;;;5073557;28;20167;-74
2022/03/02 05:38:19;;;;;;;0.90;0.90;;;-4.30;1.00;;;;;;5073504;28;20213;-73
2022/03/02 05:40:45;;;;;;;0.90;0.90;;;-4.30;1.00;;;;;;5072886;28;20202;-75
2022/03/02 05:43:10;;;;;;;0.80;0.80;;;-4.20;1.00;;;;;;5073195;28;20652;-74
2022/03/02 05:45:36;;;;;;;0.83;0.83;;;-4.20;1.00;;;;;;5072986;28;20349;-73
2022/03/02 05:48:02;;;;;;;0.90;0.90;;;-4.10;1.00;;;;;;5073224;28;20178;-74
2022/03/02 05:50:28;;;;;;;0.83;0.83;;;-4.00;1.00;;;;;;5072762;28;20201;-74
2022/03/02 05:52:54;;;;;;;0.90;0.90;;;-4.00;1.00;;;;;;5073188;28;20627;-75
2022/03/02 05:55:19;;;;;;;0.90;0.90;;;-4.20;1.00;;;;;;5073053;28;20181;-74
2022/03/02 05:57:45;;;;;;;1.00;1.00;;;-4.30;1.00;;;;;;5073136;28;20182;-74
2022/03/02 06:00:11;;;;;;;1.00;1.00;;;-4.10;1.00;;;;;;5071871;28;20198;-74
2022/03/02 06:02:37;;;;;;;0.80;0.80;;;-4.00;1.00;;;;;;5068516;28;20190;-74
2022/03/02 06:05:02;;;;;;;0.80;0.80;;;-4.10;1.00;;;;;;5072371;28;20923;-70
2022/03/02 06:07:28;;;;;;;0.90;0.90;;;-4.00;1.00;;;;;;5072636;28;20688;-73
2022/03/02 06:09:54;;;;;;;0.90;0.90;;;-4.50;1.00;;;;;;5072708;28;20191;-71
2022/03/02 06:12:20;;;;;;;0.90;0.90;;;-3.80;1.00;;;;;;5072950;28;20182;-72
2022/03/02 06:14:46;;;;;;;0.80;0.80;;;-3.70;1.00;;;;;;5071974;28;20206;-73
2022/03/02 06:17:11;;;;;;;0.80;0.80;;;-3.70;1.00;;;;;;5058953;28;20217;-73
2022/03/02 06:19:37;;;;;;;0.90;0.90;;;-3.50;1.00;;;;;;5052368;28;20199;-74
2022/03/02 06:22:04;;;;;;;0.80;0.80;;;-3.40;1.00;;;;;;5052758;28;20660;-75
2022/03/02 06:24:31;;;;;;;0.83;0.83;;;-3.40;1.00;;;;;;5052353;28;20211;-71
2022/03/02 06:26:57;;;;;;;0.90;0.90;;;-3.50;1.00;;;;;;5066180;28;20221;-70
2022/03/02 06:29:22;;;;;;;0.90;0.90;;;-3.40;1.00;;;;;;5067649;28;20195;-73
2022/03/02 06:31:48;;;;;;;0.90;0.90;;;-3.20;1.00;;;;;;5071234;28;20183;-73
2022/03/02 06:34:13;;;;;;;0.90;0.90;;;-3.00;1.00;;;;;;5071862;28;20212;-74
2022/03/02 06:36:39;;;;;;;0.90;0.90;;;-2.90;1.00;;;;;;5068440;28;20189;-70
2022/03/02 06:39:05;;;;;;;0.90;0.90;;;-2.60;1.00;;;;;;5070994;28;20684;-71
2022/03/02 06:41:35;;;;;;;0.80;0.80;;;-2.70;1.00;;;;;;5066257;28;20190;-72
2022/03/02 06:44:04;;;;;;;0.90;0.90;;;-2.60;1.00;;;;;;5071826;28;20166;-72
2022/03/02 06:46:32;;;;;;;0.90;0.90;;;-2.40;1.00;;;;;;5055447;28;20218;-72
2022/03/02 06:49:04;;;;;;;0.80;0.80;;;-2.30;1.00;;;;;;5063788;28;20225;-72
2022/03/02 06:51:30;;;;;;;0.80;0.80;;;-2.30;99.90;;;;;;5071477;28;20627;-70
2022/03/02 06:54:01;;;;;;;0.80;0.80;;;-2.10;99.90;;;;;;5071613;28;20174;-72
2022/03/02 06:56:29;;;;;;;0.90;0.90;;;-1.60;99.90;;;;;;5071863;28;20265;-69
2022/03/02 06:58:56;;;;;;;1.00;1.00;;;-1.30;99.90;;;;;;5071556;28;20186;-71
2022/03/02 07:01:27;;;;;;;0.70;0.70;;;-1.10;99.90;;;;;;5071427;28;20178;-69
2022/03/02 07:03:57;;;;;;;0.90;0.90;;;-1.40;1.00;;;;;;5071590;28;20220;-71
2022/03/02 07:06:24;;;;;;;0.90;0.90;;;-1.30;1.00;;;;;;5068859;28;20259;-71
2022/03/02 07:08:50;;;;;;;0.90;0.90;;;-1.30;1.00;;;;;;5070994;28;20174;-73
2022/03/02 07:11:17;;;;;;;0.90;0.90;;;-1.80;1.00;;;;;;5068245;28;20181;-74
2022/03/02 07:13:47;;;;;;;0.93;0.93;;;-1.80;1.00;;;;;;5069617;28;20232;-73
2022/03/02 07:16:14;;;;;;;0.90;0.90;;;-1.70;1.00;;;;;;5073103;28;20194;-74
2022/03/02 07:18:40;;;;;;;0.90;0.90;;;-1.80;1.00;;;;;;5073928;28;20183;-72
2022/03/02 07:21:14;;;;;;;0.90;0.90;;;-1.90;1.00;;;;;;5070523;28;20247;-73
2022/03/02 07:23:46;;;;;;;0.80;0.80;;;-1.80;1.00;;;;;;5071087;28;20174;-72
2022/03/02 07:26:12;;;;;;;0.90;0.90;;;-1.80;1.00;;;;;;5071345;28;20268;-72
2022/03/02 07:28:39;;;;;;;0.80;0.80;;;-1.80;1.00;;;;;;5071172;28;20672;-74
2022/03/02 07:31:08;;;;;;;0.83;0.83;;;-1.60;1.00;;;;;;5070892;28;20198;-73
2022/03/02 07:33:37;;;;;;;0.83;0.83;;;-1.30;99.90;;;;;;5071266;28;20198;-73
2022/03/02 07:36:03;;;;;;;0.87;0.87;;;-1.10;99.90;;;;;;5071261;28;20280;-73
2022/03/02 07:38:31;;;;;;;0.80;0.80;;;-1.20;1.00;;;;;;5071352;28;20182;-74
2022/03/02 07:40:57;;;;;;;0.80;0.80;;;-1.20;1.00;;;;;;5070708;28;20707;-73
2022/03/02 07:43:23;;;;;;;0.80;0.80;;;-1.10;99.90;;;;;;5071265;28;20218;-73
2022/03/02 07:45:50;;;;;;;0.90;0.90;;;-1.40;99.90;;;;;;5071304;28;20683;-73
2022/03/02 07:48:15;;;;;;;0.80;0.80;;;-0.80;1.00;;;;;;5071299;28;20181;-73
2022/03/02 07:50:42;;;;;;;0.80;0.80;;;-0.90;1.00;;;;;;5070954;28;20194;-72
2022/03/02 07:53:11;;;;;;;0.80;0.80;;;-0.70;99.90;;;;;;5072949;28;20628;-72
2022/03/02 07:55:38;;;;;;;0.80;0.80;;;-0.60;99.90;;;;;;5073024;28;20183;-72
2022/03/02 07:58:04;;;;;;;0.80;0.80;;;-0.60;1.00;;;;;;5072186;28;20651;-74
2022/03/02 08:00:29;;;;;;;0.83;0.83;;;-0.50;99.90;;;;;;5070554;28;20190;-73
2022/03/02 08:02:59;;;;;;;0.73;0.73;;;-0.50;34.70;;;;;;5071180;28;20251;-72
2022/03/02 08:05:25;;;;;;;0.80;0.80;;;-0.40;1.00;;;;;;5070721;28;20273;-73
2022/03/02 08:07:51;;;;;;;0.80;0.80;;;-0.20;1.00;;;;;;5071042;28;20668;-73
2022/03/02 08:10:18;;;;;;;0.90;0.90;;;0.10;1.00;;;;;;5070626;28;20220;-73
2022/03/02 08:12:44;;;;;;;0.80;0.80;;;0.80;1.00;;;;;;5071007;28;20171;-73
2022/03/02 08:15:10;;;;;;;0.80;0.80;;;0.40;99.90;;;;;;5071066;28;20179;-74
2022/03/02 08:17:36;;;;;;;0.80;0.80;;;0.50;99.90;;;;;;5072262;28;20257;-74
2022/03/02 08:20:03;;;;;;;0.80;0.80;;;0.40;99.90;;;;;;5070304;28;20297;-74
2022/03/02 08:22:30;;;;;;;0.80;0.80;;;0.40;99.90;;;;;;5070679;28;20177;-74
2022/03/02 08:25:06;;;;;;;0.70;0.70;;;0.60;99.90;;;;;;5071999;28;20515;-74
2022/03/02 08:27:33;;;;;;;0.70;0.70;;;0.70;99.90;;;;;;5074610;28;20301;-73
2022/03/02 08:30:01;;;;;;;0.80;0.80;;;0.90;1.00;;;;;;5073908;28;20213;-74
2022/03/02 08:32:30;;;;;;;0.87;0.87;;;1.20;1.00;;;;;;5074333;28;20562;-74
2022/03/02 08:34:57;;;;;;;0.80;0.80;;;1.30;1.00;;;;;;5074651;28;20181;-73
2022/03/02 08:37:24;;;;;;;0.80;0.80;;;1.60;1.00;;;;;;5074494;28;20178;-74
2022/03/02 08:39:49;;;;;;;0.80;0.80;;;1.90;99.90;;;;;;5074038;28;20687;-74
2022/03/02 08:42:15;;;;;;;0.87;0.87;;;2.60;1.00;;;;;;5074123;28;20179;-73
2022/03/02 08:44:44;;;;;;;0.70;0.70;;;2.80;1.00;;;;;;5074206;28;20174;-74
2022/03/02 08:47:09;;;;;;;0.70;0.70;;;3.30;1.00;;;;;;5074120;28;20586;-74
2022/03/02 08:49:35;;;;;;;0.63;0.63;;;3.90;1.00;;;;;;5073973;28;20194;-74
2022/03/02 08:52:02;;;;;;;0.70;0.70;;;4.10;1.00;;;;;;5076297;28;20605;-73
2022/03/02 08:54:34;;;;;;;0.60;0.60;;;3.90;1.00;;;;;;5075038;28;20175;-74
2022/03/02 08:57:02;;;;;;;0.60;0.60;;;4.30;1.00;;;;;;5074004;28;20185;-74
2022/03/02 08:59:31;;;;;;;0.63;0.63;;;4.70;1.00;;;;;;5073722;28;20198;-74
2022/03/02 09:01:57;;;;;;;0.60;0.60;;;4.70;1.00;;;;;;5073813;28;20664;-72
2022/03/02 09:04:25;;;;;;;0.60;0.60;;;5.20;1.00;;;;;;5074027;28;20170;-74
2022/03/02 09:06:53;;;;;;;0.60;0.60;;;5.10;1.00;;;;;;5073843;28;20249;-73
2022/03/02 09:09:19;;;;;;;0.60;0.60;;;5.50;1.00;;;;;;5073652;28;20659;-73
2022/03/02 09:11:46;;;;;;;0.70;0.70;;;5.40;1.00;;;;;;5073723;28;20232;-73
2022/03/02 09:14:12;;;;;;;0.57;0.57;;;5.40;1.00;;;;;;5073663;28;20185;-74
2022/03/02 09:16:39;;;;;;;0.70;0.70;;;4.80;1.00;;;;;;5073943;28;20178;-73
2022/03/02 09:19:06;;;;;;;0.60;0.60;;;5.40;1.00;;;;;;5073303;28;20183;-73
2022/03/02 09:21:32;;;;;;;0.50;0.50;;;5.90;1.00;;;;;;5055688;28;20206;-73
2022/03/02 09:23:58;;;;;;;0.60;0.60;;;6.00;1.00;;;;;;5073761;28;20170;-74
2022/03/02 09:26:23;;;;;;;0.50;0.50;;;6.20;1.00;;;;;;5073584;28;20279;-74
2022/03/02 09:28:51;;;;;;;0.50;0.50;;;6.20;1.00;;;;;;5073384;28;20679;-74
2022/03/02 09:31:20;;;;;;;0.60;0.60;;;6.70;1.00;;;;;;5073611;28;20175;-75
2022/03/02 09:33:56;;;;;;;0.43;0.43;;;7.20;1.00;;;;;;5073250;28;20672;-74
2022/03/02 09:36:24;;;;;;;0.50;0.50;;;7.20;1.00;;;;;;5073139;28;20185;-74
2022/03/02 09:38:51;;;;;;;0.40;0.40;;;7.10;1.00;;;;;;5073418;28;20178;-74
2022/03/02 09:41:33;;;;;;;0.40;0.40;;;6.50;1.00;;;;;;5074443;28;20174;-74
2022/03/02 09:44:00;;;;;;;0.50;0.50;;;7.10;1.00;;;;;;5073469;28;20673;-74
2022/03/02 09:46:39;;;;;;;0.50;0.50;;;7.60;1.00;;;;;;5073371;28;20301;-75
2022/03/02 09:49:08;;;;;;;0.50;0.50;;;6.50;1.00;;;;;;5072446;28;20235;-74
2022/03/02 09:51:35;;;;;;;0.57;0.57;;;6.30;1.00;;;;;;5073125;28;20266;-77
2022/03/02 09:54:03;;;;;;;0.50;0.50;;;6.70;1.00;;;;;;5072872;28;20636;-73
2022/03/02 09:56:31;;;;;;;0.50;0.50;;;6.70;1.00;;;;;;5072948;28;20202;-74
2022/03/02 09:58:59;;;;;;;0.50;0.50;;;7.30;1.00;;;;;;5072470;28;20167;-76
2022/03/02 10:01:26;;;;;;;0.50;0.50;;;7.80;1.00;;;;;;5072837;28;20174;-76
2022/03/02 10:03:53;;;;;;;0.50;0.50;;;8.30;1.00;;;;;;5072726;28;20624;-74
2022/03/02 10:06:20;;;;;;;0.40;0.40;;;8.60;1.00;;;;;;5072655;28;20213;-74
2022/03/02 10:08:50;;;;;;;0.47;0.47;;;8.80;1.00;;;;;;5072662;28;20175;-75
2022/03/02 10:11:21;;;;;;;0.43;0.43;;;7.50;1.00;;;;;;5072459;28;20181;-75
2022/03/02 10:13:47;;;;;;;0.40;0.40;;;7.70;1.00;;;;;;5072514;28;20174;-73
2022/03/02 10:16:21;;;;;;;0.50;0.50;;;8.60;1.00;;;;;;5072652;28;20194;-74
2022/03/02 10:18:54;;;;;;;0.40;0.40;;;8.70;1.00;;;;;;5072367;28;20181;-74
2022/03/02 10:21:28;;;;;;;0.40;0.40;;;8.70;1.00;;;;;;5072731;28;20179;-72
2022/03/02 10:24:00;;;;;;;0.43;0.43;;;8.40;1.00;;;;;;5072584;28;20190;-76
2022/03/02 10:26:31;;;;;;;0.40;0.40;;;8.50;1.00;;;;;;5072361;28;20579;-74
2022/03/02 10:29:30;;;;;;;0.50;0.50;;;8.80;1.00;;;;;;5071667;28;20532;-76
2022/03/02 10:32:09;;;;;;;0.40;0.40;;;8.20;1.00;;;;;;5072549;28;20178;-75
2022/03/02 10:34:49;;;;;;;0.60;0.60;;;9.00;1.00;;;;;;5072274;28;20179;-74
2022/03/02 10:37:21;;;;;;;0.40;0.40;;;9.90;1.00;;;;;;5072065;28;20181;-74
2022/03/02 10:39:50;;;;;;;0.40;0.40;;;9.70;1.00;;;;;;5071757;28;20552;-74
2022/03/02 10:42:43;;;;;;;0.40;0.40;;;9.80;1.00;;;;;;5075731;28;20171;-76
2022/03/02 10:45:15;;;;;;;0.40;0.40;;;9.40;1.00;;;;;;5072140;28;20162;-74
2022/03/02 10:47:55;;;;;;;0.40;0.40;;;9.20;1.00;;;;;;5071330;28;20237;-75
2022/03/02 10:50:27;;;;;;;0.50;0.50;;;8.70;1.00;;;;;;5071624;28;20194;-75
2022/03/02 10:52:55;;;;;;;0.57;0.57;;;7.60;1.00;;;;;;5072205;28;20177;-75
2022/03/02 10:55:22;;;;;;;0.40;0.40;;;7.90;1.00;;;;;;5072357;28;20357;-77
2022/03/02 10:57:50;;;;;;;0.40;0.40;;;8.10;1.00;;;;;;5071824;28;20235;-75
2022/03/02 11:00:18;;;;;;;0.40;0.40;;;7.40;1.00;;;;;;5071336;28;20282;-75
2022/03/02 11:02:46;;;;;;;0.50;0.50;;;7.40;1.00;;;;;;5071890;28;20177;-76
2022/03/02 11:05:15;;;;;;;0.50;0.50;;;7.50;1.00;;;;;;5072127;28;20540;-75
2022/03/02 11:07:41;;;;;;;0.60;0.60;;;7.40;1.00;;;;;;5072409;28;20228;-76
2022/03/02 11:10:11;;;;;;;0.60;0.60;;;7.30;1.00;;;;;;5071282;28;20187;-75
2022/03/02 11:12:41;;;;;;;0.60;0.60;;;7.40;1.00;;;;;;5074613;28;20652;-75
2022/03/02 11:15:07;;;;;;;0.70;0.70;;;7.50;1.00;;;;;;5073189;28;20231;-76
2022/03/02 11:17:33;;;;;;;0.60;0.60;;;7.80;1.00;;;;;;5073444;28;20217;-75
2022/03/02 11:20:06;;;;;;;0.70;0.70;;;7.80;1.00;;;;;;5072036;28;20742;-75
2022/03/02 11:22:31;;;;;;;0.60;0.60;;;7.80;1.00;;;;;;5072170;28;20663;-74
2022/03/02 11:24:59;;;;;;;0.60;0.60;;;7.90;1.00;;;;;;5072438;28;20183;-76
2022/03/02 11:27:30;;;;;;;0.60;0.60;;;7.80;1.00;;;;;;5073506;28;20229;-74
2022/03/02 11:30:10;;;;;;;0.70;0.70;;;7.80;1.00;;;;;;5071774;28;20205;-76
2022/03/02 11:32:39;;;;;;;0.60;0.60;;;7.90;1.00;;;;;;5072222;28;20190;-75
2022/03/02 11:35:08;;;;;;;0.60;0.60;;;8.00;1.00;;;;;;5076633;28;20174;-75
2022/03/02 11:37:35;;;;;;;0.60;0.60;;;7.90;1.00;;;;;;5072310;28;20179;-74
2022/03/02 11:40:04;;;;;;;0.60;0.60;;;8.00;1.00;;;;;;5072154;28;20667;-76
2022/03/02 11:42:31;;;;;;;0.60;0.60;;;8.10;1.00;;;;;;5073389;28;20171;-76
2022/03/02 11:44:59;;;;;;;0.43;0.43;;;7.90;1.00;;;;;;5072454;28;20235;-75
2022/03/02 11:47:38;;;;;;;0.70;0.70;;;8.20;1.00;;;;;;5071642;28;20241;-75
2022/03/02 11:50:07;;;;;;;0.60;0.60;;;8.20;1.00;;;;;;5071398;28;20190;-73
2022/03/02 11:52:35;;;;;;;0.60;0.60;;;8.20;1.00;;;;;;5071499;28;20174;-75
2022/03/02 11:55:08;;;;;;;0.60;0.60;;;8.10;1.00;;;;;;5073227;28;20550;-75
2022/03/02 11:57:48;;;;;;;0.70;0.70;;;8.00;1.00;;;;;;5074831;28;20202;-75
2022/03/02 12:00:18;;;;;;;0.70;0.70;;;8.30;1.00;;;;;;5077229;28;20193;-76
2022/03/02 12:02:49;;;;;;;0.60;0.60;;;8.60;1.00;;;;;;5077232;28;20174;-74
2022/03/02 12:05:17;;;;;;;0.70;0.70;;;8.60;1.00;;;;;;5074811;28;20210;-74
2022/03/02 12:07:46;;;;;;;0.60;0.60;;;8.70;1.00;;;;;;5075494;28;20279;-75
2022/03/02 12:10:34;;;;;;;0.70;0.70;;;8.60;1.00;;;;;;5074204;28;20196;-75
2022/03/02 12:13:00;;;;;;;0.60;0.60;;;8.90;1.00;;;;;;5075116;28;20181;-75
2022/03/02 12:15:42;;;;;;;0.60;0.60;;;9.00;1.00;;;;;;5075101;28;20258;-75
2022/03/02 12:18:09;;;;;;;0.70;0.70;;;8.90;1.00;;;;;;5075209;28;20269;-74
2022/03/02 12:20:49;;;;;;;0.70;0.70;;;9.30;1.00;;;;;;5075620;28;20648;-76
2022/03/02 12:23:30;;;;;;;0.60;0.60;;;9.90;1.00;;;;;;5076440;28;20170;-76
2022/03/02 12:25:58;;;;;;;0.50;0.50;;;10.30;1.00;;;;;;5076282;28;20286;-75
2022/03/02 12:28:24;;;;;;;0.70;0.70;;;10.40;1.00;;;;;;5076256;28;20185;-75
2022/03/02 12:30:50;;;;;;;0.60;0.60;;;10.20;1.00;;;;;;5075095;28;20206;-73
2022/03/02 12:33:21;;;;;;;0.60;0.60;;;10.20;1.00;;;;;;5074747;28;20190;-74
2022/03/02 12:35:47;;;;;;;0.50;0.50;;;10.10;1.00;;;;;;5074258;28;20206;-75
2022/03/02 12:38:13;;;;;;;0.60;0.60;;;10.20;1.00;;;;;;5074354;28;20175;-75
2022/03/02 12:40:42;;;;;;;0.60;0.60;;;10.50;1.00;;;;;;5073901;28;20277;-74
2022/03/02 12:43:14;;;;;;;0.50;0.50;;;10.50;1.00;;;;;;5075678;28;20170;-75
2022/03/02 12:45:42;;;;;;;0.57;0.57;;;10.40;1.00;;;;;;5074974;28;20170;-74
2022/03/02 12:48:08;;;;;;;0.50;0.50;;;10.10;1.00;;;;;;5074365;28;20179;-76
2022/03/02 12:50:34;;;;;;;0.60;0.60;;;9.90;1.00;;;;;;5073667;28;20194;-74
2022/03/02 12:53:01;;;;;;;0.57;0.57;;;9.90;1.00;;;;;;5073984;28;20182;-75
2022/03/02 12:55:26;;;;;;;0.60;0.60;;;9.90;1.00;;;;;;5074022;28;20183;-76
2022/03/02 12:57:52;;;;;;;0.60;0.60;;;9.60;1.00;;;;;;5074268;28;20664;-76
2022/03/02 13:00:21;;;;;;;0.53;0.53;;;9.40;1.00;;;;;;5073840;28;20206;-75
2022/03/02 13:02:55;;;;;;;0.60;0.60;;;9.20;1.00;;;;;;5074279;28;20178;-77